x

Halibut Bank (46146) Wave Buoy

8:00 - Tue 30th Sep 2014 All times are PDT. -7 hours from GMT.

  • Sig Wave height 1.3ft
  • Peak Period 3s
  • Wind
    13mph, 16mph gusts
  • Sea Temp 58°f
  • Sea Pressure 1018.9mb
  • Halibut Bank
  • Halibut Bank

More Historic Weather Station data

Upgrade to MSW Pro to gain access to the past 30 days of data for over 8000 Wavebouys and Weather Stations around the globe.

Join Pro

Comparision Forecast

View Surf forecast
   
Di 09/30 8:00 1.3ft 3s 13 16 mph 1018.9mb 58f -
7:00 1ft 3s 13 16 mph 1018.7mb 58f -
6:00 1.3ft 3s 13 16 mph 1018.2mb 58f -
5:00 1.3ft 3s 11 13 mph 1018.2mb 58f -
3:00 1.6ft 3s 13 18 mph 1018mb 58f -
2:00 1.3ft 3s 18 20 mph 1018mb 58f -
1:00 1.3ft 3s 13 18 mph 1018.1mb 58f -
12:00 1ft 3s 11 13 mph 1017.8mb 59f -
11:00 1ft 3s 16 18 mph 1017.3mb 59f -
10:00 1ft 3s 13 18 mph 1017.1mb 59f -
9:00 1ft 3s 13 16 mph 1016.5mb 59f -
7:00 0.7ft 3s 9 11 mph 1015.9mb 58f -
6:00 0.3ft 3s 11 13 mph 1015.6mb 58f -
5:00 0.3ft 2s 9 11 mph 1015.3mb 58f -
4:00 0.3ft 2s 9 11 mph 1015mb 58f -
3:00 0.3ft 2s 9 11 mph 1014.7mb 58f -
2:00 0.7ft 2s 11 13 mph 1014.3mb 59f -
1:00 0.3ft 2s 9 11 mph 1013.7mb 59f -
12:00 0.3ft 2s 11 13 mph 1013.1mb 58f -
Mo 09/29 11:00 0.7ft 2s 11 13 mph 1012.6mb 59f -
10:00 0.7ft 4s 11 13 mph 1012.6mb 59f -
9:00 1ft 4s 9 11 mph 1011.9mb 59f -
8:00 1ft 4s 11 13 mph 1011.4mb 59f -
7:00 1.3ft 3s 2 4 mph 1011mb 59f -
6:00 1.3ft 3s 4 7 mph 1010.9mb 59f -
5:00 1.6ft 3s 11 13 mph 1010.4mb 59f -
4:00 1.6ft 3s 16 18 mph 1010.3mb 59f -
3:00 1.3ft 3s 16 18 mph 1010mb 59f -
2:00 1.6ft 4s 16 20 mph 1009.9mb 59f -
1:00 1.6ft 3s 16 18 mph 1010.2mb 59f -
12:00 2ft 4s 18 20 mph 1010.3mb 59f -
11:00 2ft 4s 16 18 mph 1010.6mb 59f -
10:00 1.6ft 4s 13 16 mph 1011.1mb 59f -
9:00 1.6ft 4s 16 18 mph 1011mb 58f -
8:00 2ft 3s 20 22 mph 1010.5mb 58f -
7:00 1.3ft 3s 22 25 mph 1010.3mb 58f -
6:00 1.3ft 3s 16 18 mph 1010.1mb 58f 41f
5:00 1ft 3s 16 18 mph 1011mb 58f 40f
4:00 1ft 3s 11 16 mph 1011.2mb 56f 41f
3:00 1ft 3s 9 11 mph 1011.2mb 57f 41f
2:00 0.7ft 2s 11 13 mph 1011.1mb 57f 42f
1:00 0.3ft 2s 7 9 mph 1011.5mb 57f 45f
12:00 0.3ft 2s 9 11 mph 1011.6mb 57f 42f
So 09/28 11:00 0.3ft 2s 9
mph
1011.7mb 57f 43f
10:00 0.3ft 2s 9 11 mph 1012mb 57f 43f
9:00 0.3ft 2s 9
mph
1012.1mb 56f 41f
8:00 0.3ft 2s 9 11 mph 1012.2mb 57f 40f
7:00 0.3ft 3s 7 9 mph 1012.5mb 58f 42f
6:00 0.3ft 4s 9 11 mph 1012.7mb 60f 43f
5:00 0.3ft 3s 7 9 mph 1013.2mb 60f 42f
4:00 0.3ft 4s  -  2 mph 1013.6mb 59f 43f
3:00 0.3ft 3s  -  2 mph 1014.3mb 58f 43f
2:00 0.3ft 13s 4 7 mph 1014.9mb 58f 42f
1:00 0.3ft 3s 4 7 mph 1015.7mb 59f 42f
12:00 0.3ft 2s 2 4 mph 1016.4mb 60f 42f
11:00 0.3ft 3s  -  4 mph 1017.1mb 59f 43f
10:00 0.7ft 3s 4 7 mph 1017.5mb 58f 43f
9:00 1ft 3s 9 11 mph 1017.5mb 57f 43f
8:00 1ft 3s 7 9 mph 1017.7mb 57f 44f
7:00 1ft 7s 9 11 mph 1017.8mb 57f 44f
6:00 1ft 7s 9 11 mph 1018.1mb 57f 44f
5:00 0.3ft 2s 11 13 mph 1018.4mb 58f 45f
4:00 0.3ft 2s 7 9 mph 1018.9mb 59f 45f
3:00 0.3ft 3s 7
mph
1019.3mb 59f 45f
2:00 0.3ft 6s 4 7 mph 1019.5mb 59f 45f
1:00 0.7ft 3s 9 11 mph 1019.6mb 59f 45f
12:00 0.7ft 3s 7 9 mph 1019.8mb 59f 44f
Sa 09/27 11:00 1ft 3s 9 11 mph 1019.7mb 59f 44f
10:00 1ft 3s 11 13 mph 1019.7mb 59f 44f
9:00 1ft 3s 13 16 mph 1019.4mb 59f 43f
8:00 1ft 3s 13
mph
1019.3mb 56f 46f
7:00 1ft 3s 13 16 mph 1019.1mb 56f 46f
6:00 1ft 3s 16 18 mph 1019.3mb 57f 47f
5:00 1ft 3s 13
mph
1019.6mb 57f 47f
4:00 0.7ft 2s 13 16 mph 1019.9mb 57f 46f
3:00 0.7ft 2s 11 13 mph 1020.2mb 58f 42f
2:00 0.3ft 2s 11 13 mph 1020.6mb 58f 46f
1:00 0.3ft 3s 7 9 mph 1021.1mb 58f 48f
12:00 0.3ft 3s 7 9 mph 1021.6mb 57f 47f
11:00 0.3ft 3s 7
mph
1021.9mb 59f 47f
10:00 0.3ft 5s  -  mph 1021.9mb 54f 48f
9:00 0.3ft 5s  -  2 mph 1021.7mb 54f 46f
8:00 0.3ft 5s  -  2 mph 1021.2mb 53f 47f
7:00 0.3ft 2s 2 4 mph 1020.8mb 53f 46f
6:00 0.3ft 2s 2
mph
1020.4mb 54f 46f
5:00 0.3ft 2s  -  mph 1020.1mb 54f 46f